sensor_id;sensor_type;location;lat;lon;timestamp;P1;durP1;ratioP1;P2;durP2;ratioP2
20557;SDS011;10437;48.156;11.530;2023-04-08T00:01:15;11.97;;;6.80;;
20557;SDS011;10437;48.156;11.530;2023-04-08T00:03:44;11.03;;;6.97;;
20557;SDS011;10437;48.156;11.530;2023-04-08T00:06:11;12.73;;;7.17;;
20557;SDS011;10437;48.156;11.530;2023-04-08T00:08:38;10.40;;;7.00;;
20557;SDS011;10437;48.156;11.530;2023-04-08T00:11:05;13.23;;;6.87;;
20557;SDS011;10437;48.156;11.530;2023-04-08T00:13:32;11.40;;;6.80;;
20557;SDS011;10437;48.156;11.530;2023-04-08T00:16:00;12.30;;;6.20;;
20557;SDS011;10437;48.156;11.530;2023-04-08T00:18:27;12.73;;;6.70;;
20557;SDS011;10437;48.156;11.530;2023-04-08T00:20:55;10.90;;;6.70;;
20557;SDS011;10437;48.156;11.530;2023-04-08T00:23:22;11.90;;;6.40;;
20557;SDS011;10437;48.156;11.530;2023-04-08T00:25:49;11.47;;;6.53;;
20557;SDS011;10437;48.156;11.530;2023-04-08T00:28:17;14.10;;;6.87;;
20557;SDS011;10437;48.156;11.530;2023-04-08T00:30:44;11.07;;;6.23;;
20557;SDS011;10437;48.156;11.530;2023-04-08T00:33:11;10.70;;;6.30;;
20557;SDS011;10437;48.156;11.530;2023-04-08T00:35:38;8.57;;;5.57;;
20557;SDS011;10437;48.156;11.530;2023-04-08T00:38:06;11.03;;;6.00;;
20557;SDS011;10437;48.156;11.530;2023-04-08T00:40:33;9.17;;;5.37;;
20557;SDS011;10437;48.156;11.530;2023-04-08T00:43:01;11.97;;;5.60;;
20557;SDS011;10437;48.156;11.530;2023-04-08T00:45:28;11.93;;;6.00;;
20557;SDS011;10437;48.156;11.530;2023-04-08T00:47:55;9.83;;;5.20;;
20557;SDS011;10437;48.156;11.530;2023-04-08T00:50:22;9.90;;;5.70;;
20557;SDS011;10437;48.156;11.530;2023-04-08T00:52:49;10.73;;;5.90;;
20557;SDS011;10437;48.156;11.530;2023-04-08T00:55:18;8.67;;;5.03;;
20557;SDS011;10437;48.156;11.530;2023-04-08T00:57:45;9.47;;;5.03;;
20557;SDS011;10437;48.156;11.530;2023-04-08T01:00:13;10.30;;;5.37;;
20557;SDS011;10437;48.156;11.530;2023-04-08T01:02:42;9.47;;;5.67;;
20557;SDS011;10437;48.156;11.530;2023-04-08T01:05:12;9.07;;;5.10;;
20557;SDS011;10437;48.156;11.530;2023-04-08T01:07:45;9.13;;;5.03;;
20557;SDS011;10437;48.156;11.530;2023-04-08T01:10:14;11.13;;;5.80;;
20557;SDS011;10437;48.156;11.530;2023-04-08T01:12:47;11.07;;;4.60;;
20557;SDS011;10437;48.156;11.530;2023-04-08T01:15:17;10.97;;;5.17;;
20557;SDS011;10437;48.156;11.530;2023-04-08T01:17:44;8.50;;;4.90;;
20557;SDS011;10437;48.156;11.530;2023-04-08T01:20:12;8.50;;;4.97;;
20557;SDS011;10437;48.156;11.530;2023-04-08T01:22:43;8.87;;;4.93;;
20557;SDS011;10437;48.156;11.530;2023-04-08T01:25:20;8.53;;;5.20;;
20557;SDS011;10437;48.156;11.530;2023-04-08T01:27:51;8.47;;;4.60;;
20557;SDS011;10437;48.156;11.530;2023-04-08T01:30:20;8.57;;;4.37;;
20557;SDS011;10437;48.156;11.530;2023-04-08T01:32:50;7.67;;;4.97;;
20557;SDS011;10437;48.156;11.530;2023-04-08T01:35:17;8.70;;;4.30;;
20557;SDS011;10437;48.156;11.530;2023-04-08T01:37:45;9.20;;;5.13;;
20557;SDS011;10437;48.156;11.530;2023-04-08T01:40:12;8.03;;;4.77;;
20557;SDS011;10437;48.156;11.530;2023-04-08T01:42:40;10.07;;;4.90;;
20557;SDS011;10437;48.156;11.530;2023-04-08T01:45:09;8.77;;;4.70;;
20557;SDS011;10437;48.156;11.530;2023-04-08T01:47:37;13.07;;;5.07;;
20557;SDS011;10437;48.156;11.530;2023-04-08T01:50:05;7.20;;;4.33;;
20557;SDS011;10437;48.156;11.530;2023-04-08T01:52:34;8.20;;;4.90;;
20557;SDS011;10437;48.156;11.530;2023-04-08T01:55:01;8.47;;;5.20;;
20557;SDS011;10437;48.156;11.530;2023-04-08T01:57:31;6.83;;;4.80;;
20557;SDS011;10437;48.156;11.530;2023-04-08T02:00:00;9.97;;;5.20;;
20557;SDS011;10437;48.156;11.530;2023-04-08T02:02:30;8.57;;;4.93;;
20557;SDS011;10437;48.156;11.530;2023-04-08T02:04:58;9.57;;;4.80;;
20557;SDS011;10437;48.156;11.530;2023-04-08T02:07:25;10.23;;;5.70;;
20557;SDS011;10437;48.156;11.530;2023-04-08T02:09:52;8.70;;;5.03;;
20557;SDS011;10437;48.156;11.530;2023-04-08T02:12:20;9.27;;;5.13;;
20557;SDS011;10437;48.156;11.530;2023-04-08T02:14:47;9.17;;;5.53;;
20557;SDS011;10437;48.156;11.530;2023-04-08T02:17:16;8.37;;;5.00;;
20557;SDS011;10437;48.156;11.530;2023-04-08T02:19:51;9.73;;;5.60;;
20557;SDS011;10437;48.156;11.530;2023-04-08T02:25:10;9.77;;;4.87;;
20557;SDS011;10437;48.156;11.530;2023-04-08T02:27:40;10.93;;;5.30;;
20557;SDS011;10437;48.156;11.530;2023-04-08T02:30:09;11.37;;;5.60;;
20557;SDS011;10437;48.156;11.530;2023-04-08T02:32:36;10.70;;;5.43;;
20557;SDS011;10437;48.156;11.530;2023-04-08T02:35:05;9.53;;;5.50;;
20557;SDS011;10437;48.156;11.530;2023-04-08T02:37:33;7.83;;;5.10;;
20557;SDS011;10437;48.156;11.530;2023-04-08T02:40:00;9.57;;;5.20;;
20557;SDS011;10437;48.156;11.530;2023-04-08T02:42:27;8.90;;;4.97;;
20557;SDS011;10437;48.156;11.530;2023-04-08T02:44:55;10.53;;;5.47;;
20557;SDS011;10437;48.156;11.530;2023-04-08T02:47:22;10.80;;;5.40;;
20557;SDS011;10437;48.156;11.530;2023-04-08T02:49:50;9.67;;;5.23;;
20557;SDS011;10437;48.156;11.530;2023-04-08T02:52:20;9.80;;;5.57;;
20557;SDS011;10437;48.156;11.530;2023-04-08T02:54:47;9.00;;;5.87;;
20557;SDS011;10437;48.156;11.530;2023-04-08T02:57:15;10.37;;;6.10;;
20557;SDS011;10437;48.156;11.530;2023-04-08T02:59:42;10.20;;;6.10;;
20557;SDS011;10437;48.156;11.530;2023-04-08T03:02:09;8.53;;;5.40;;
20557;SDS011;10437;48.156;11.530;2023-04-08T03:04:36;9.60;;;5.77;;
20557;SDS011;10437;48.156;11.530;2023-04-08T03:07:03;10.03;;;5.63;;
20557;SDS011;10437;48.156;11.530;2023-04-08T03:09:32;10.80;;;5.57;;
20557;SDS011;10437;48.156;11.530;2023-04-08T03:11:59;11.33;;;5.70;;
20557;SDS011;10437;48.156;11.530;2023-04-08T03:14:26;9.83;;;5.43;;
20557;SDS011;10437;48.156;11.530;2023-04-08T03:16:53;9.40;;;5.50;;
20557;SDS011;10437;48.156;11.530;2023-04-08T03:19:20;12.43;;;6.57;;
20557;SDS011;10437;48.156;11.530;2023-04-08T03:21:47;9.33;;;5.80;;
20557;SDS011;10437;48.156;11.530;2023-04-08T03:24:15;13.67;;;6.90;;
20557;SDS011;10437;48.156;11.530;2023-04-08T03:26:43;12.13;;;6.50;;
20557;SDS011;10437;48.156;11.530;2023-04-08T03:29:10;10.23;;;5.80;;
20557;SDS011;10437;48.156;11.530;2023-04-08T03:31:37;11.57;;;6.40;;
20557;SDS011;10437;48.156;11.530;2023-04-08T03:34:04;10.50;;;6.37;;
20557;SDS011;10437;48.156;11.530;2023-04-08T03:36:31;10.53;;;6.67;;
20557;SDS011;10437;48.156;11.530;2023-04-08T03:38:58;9.30;;;6.33;;
20557;SDS011;10437;48.156;11.530;2023-04-08T03:41:27;12.10;;;6.53;;
20557;SDS011;10437;48.156;11.530;2023-04-08T03:43:56;12.23;;;6.47;;
20557;SDS011;10437;48.156;11.530;2023-04-08T03:46:23;10.97;;;6.40;;
20557;SDS011;10437;48.156;11.530;2023-04-08T03:48:50;13.40;;;7.50;;
20557;SDS011;10437;48.156;11.530;2023-04-08T03:51:18;12.30;;;7.33;;
20557;SDS011;10437;48.156;11.530;2023-04-08T03:53:45;14.83;;;7.63;;
20557;SDS011;10437;48.156;11.530;2023-04-08T03:56:13;12.93;;;6.47;;
20557;SDS011;10437;48.156;11.530;2023-04-08T03:58:40;11.43;;;6.87;;
20557;SDS011;10437;48.156;11.530;2023-04-08T04:01:08;11.23;;;6.93;;
20557;SDS011;10437;48.156;11.530;2023-04-08T04:03:35;11.63;;;7.47;;
20557;SDS011;10437;48.156;11.530;2023-04-08T04:06:02;10.47;;;7.07;;
20557;SDS011;10437;48.156;11.530;2023-04-08T04:08:30;13.60;;;7.20;;
20557;SDS011;10437;48.156;11.530;2023-04-08T04:10:57;11.63;;;6.97;;
20557;SDS011;10437;48.156;11.530;2023-04-08T04:13:24;15.30;;;7.97;;
20557;SDS011;10437;48.156;11.530;2023-04-08T04:15:51;16.50;;;7.77;;
20557;SDS011;10437;48.156;11.530;2023-04-08T04:18:20;14.10;;;7.97;;
20557;SDS011;10437;48.156;11.530;2023-04-08T04:20:47;13.50;;;7.67;;
20557;SDS011;10437;48.156;11.530;2023-04-08T04:23:14;12.73;;;7.73;;
20557;SDS011;10437;48.156;11.530;2023-04-08T04:25:41;15.27;;;8.17;;
20557;SDS011;10437;48.156;11.530;2023-04-08T04:28:08;14.90;;;7.73;;
20557;SDS011;10437;48.156;11.530;2023-04-08T04:30:35;12.30;;;7.70;;
20557;SDS011;10437;48.156;11.530;2023-04-08T04:33:03;15.93;;;9.07;;
20557;SDS011;10437;48.156;11.530;2023-04-08T04:35:32;14.73;;;8.07;;
20557;SDS011;10437;48.156;11.530;2023-04-08T04:37:59;17.13;;;8.40;;
20557;SDS011;10437;48.156;11.530;2023-04-08T04:40:26;14.03;;;7.80;;
20557;SDS011;10437;48.156;11.530;2023-04-08T04:42:53;14.50;;;8.37;;
20557;SDS011;10437;48.156;11.530;2023-04-08T04:45:20;16.40;;;8.90;;
20557;SDS011;10437;48.156;11.530;2023-04-08T04:47:47;16.33;;;8.97;;
20557;SDS011;10437;48.156;11.530;2023-04-08T04:50:14;17.67;;;8.80;;
20557;SDS011;10437;48.156;11.530;2023-04-08T04:52:43;17.17;;;9.23;;
20557;SDS011;10437;48.156;11.530;2023-04-08T04:55:10;15.53;;;8.40;;
20557;SDS011;10437;48.156;11.530;2023-04-08T04:57:37;18.70;;;9.07;;
20557;SDS011;10437;48.156;11.530;2023-04-08T05:00:05;18.93;;;9.40;;
20557;SDS011;10437;48.156;11.530;2023-04-08T05:02:33;16.67;;;9.63;;
20557;SDS011;10437;48.156;11.530;2023-04-08T05:05:00;16.37;;;9.43;;
20557;SDS011;10437;48.156;11.530;2023-04-08T05:07:27;18.50;;;9.57;;
20557;SDS011;10437;48.156;11.530;2023-04-08T05:09:55;19.47;;;10.20;;
20557;SDS011;10437;48.156;11.530;2023-04-08T05:12:22;15.73;;;9.30;;
20557;SDS011;10437;48.156;11.530;2023-04-08T05:14:49;17.50;;;10.10;;
20557;SDS011;10437;48.156;11.530;2023-04-08T05:17:16;15.37;;;9.30;;
20557;SDS011;10437;48.156;11.530;2023-04-08T05:19:44;19.47;;;9.47;;
20557;SDS011;10437;48.156;11.530;2023-04-08T05:22:11;17.70;;;10.57;;
20557;SDS011;10437;48.156;11.530;2023-04-08T05:24:38;18.17;;;10.10;;
20557;SDS011;10437;48.156;11.530;2023-04-08T05:27:06;17.97;;;10.20;;
20557;SDS011;10437;48.156;11.530;2023-04-08T05:29:33;19.27;;;10.50;;
20557;SDS011;10437;48.156;11.530;2023-04-08T05:32:00;19.03;;;10.20;;
20557;SDS011;10437;48.156;11.530;2023-04-08T05:34:27;20.87;;;10.87;;
20557;SDS011;10437;48.156;11.530;2023-04-08T05:36:56;23.90;;;10.57;;
20557;SDS011;10437;48.156;11.530;2023-04-08T05:39:23;19.37;;;10.00;;
20557;SDS011;10437;48.156;11.530;2023-04-08T05:41:50;19.63;;;11.17;;
20557;SDS011;10437;48.156;11.530;2023-04-08T05:44:19;18.63;;;10.67;;
20557;SDS011;10437;48.156;11.530;2023-04-08T05:46:46;22.07;;;10.80;;
20557;SDS011;10437;48.156;11.530;2023-04-08T05:49:13;23.00;;;11.07;;
20557;SDS011;10437;48.156;11.530;2023-04-08T05:51:41;24.27;;;11.47;;
20557;SDS011;10437;48.156;11.530;2023-04-08T05:54:08;19.80;;;10.87;;
20557;SDS011;10437;48.156;11.530;2023-04-08T05:56:35;23.47;;;11.90;;
20557;SDS011;10437;48.156;11.530;2023-04-08T05:59:02;20.13;;;11.33;;
20557;SDS011;10437;48.156;11.530;2023-04-08T06:01:31;20.20;;;11.37;;
20557;SDS011;10437;48.156;11.530;2023-04-08T06:03:58;19.50;;;10.47;;
20557;SDS011;10437;48.156;11.530;2023-04-08T06:06:25;19.73;;;11.17;;
20557;SDS011;10437;48.156;11.530;2023-04-08T06:08:52;20.43;;;11.27;;
20557;SDS011;10437;48.156;11.530;2023-04-08T06:11:19;21.70;;;11.03;;
20557;SDS011;10437;48.156;11.530;2023-04-08T06:13:46;19.87;;;10.50;;
20557;SDS011;10437;48.156;11.530;2023-04-08T06:16:14;19.17;;;10.57;;
20557;SDS011;10437;48.156;11.530;2023-04-08T06:18:43;20.47;;;11.17;;
20557;SDS011;10437;48.156;11.530;2023-04-08T06:21:10;18.80;;;11.07;;
20557;SDS011;10437;48.156;11.530;2023-04-08T06:23:37;21.30;;;10.83;;
20557;SDS011;10437;48.156;11.530;2023-04-08T06:26:04;17.13;;;9.87;;
20557;SDS011;10437;48.156;11.530;2023-04-08T06:28:31;21.47;;;11.43;;
20557;SDS011;10437;48.156;11.530;2023-04-08T06:30:58;21.80;;;11.57;;
20557;SDS011;10437;48.156;11.530;2023-04-08T06:33:25;18.60;;;10.83;;
20557;SDS011;10437;48.156;11.530;2023-04-08T06:36:01;19.30;;;11.13;;
20557;SDS011;10437;48.156;11.530;2023-04-08T06:38:28;17.90;;;10.70;;
20557;SDS011;10437;48.156;11.530;2023-04-08T06:40:56;21.37;;;11.70;;
20557;SDS011;10437;48.156;11.530;2023-04-08T06:43:27;18.60;;;11.17;;
20557;SDS011;10437;48.156;11.530;2023-04-08T06:45:55;18.63;;;11.00;;
20557;SDS011;10437;48.156;11.530;2023-04-08T06:48:22;18.53;;;10.97;;
20557;SDS011;10437;48.156;11.530;2023-04-08T06:50:52;22.17;;;11.53;;
20557;SDS011;10437;48.156;11.530;2023-04-08T06:53:21;19.77;;;10.90;;
20557;SDS011;10437;48.156;11.530;2023-04-08T06:55:48;17.63;;;10.30;;
20557;SDS011;10437;48.156;11.530;2023-04-08T06:58:15;18.90;;;10.93;;
20557;SDS011;10437;48.156;11.530;2023-04-08T07:00:42;20.17;;;10.27;;
20557;SDS011;10437;48.156;11.530;2023-04-08T07:03:10;19.57;;;10.97;;
20557;SDS011;10437;48.156;11.530;2023-04-08T07:05:37;18.17;;;10.30;;
20557;SDS011;10437;48.156;11.530;2023-04-08T07:08:06;20.53;;;11.00;;
20557;SDS011;10437;48.156;11.530;2023-04-08T07:10:34;19.40;;;11.20;;
20557;SDS011;10437;48.156;11.530;2023-04-08T07:13:01;20.67;;;11.13;;
20557;SDS011;10437;48.156;11.530;2023-04-08T07:15:28;20.87;;;10.83;;
20557;SDS011;10437;48.156;11.530;2023-04-08T07:17:56;21.80;;;12.33;;
20557;SDS011;10437;48.156;11.530;2023-04-08T07:20:23;20.50;;;11.93;;
20557;SDS011;10437;48.156;11.530;2023-04-08T07:22:51;24.10;;;11.97;;
20557;SDS011;10437;48.156;11.530;2023-04-08T07:25:18;21.50;;;12.30;;
20557;SDS011;10437;48.156;11.530;2023-04-08T07:27:46;23.37;;;12.27;;
20557;SDS011;10437;48.156;11.530;2023-04-08T07:30:13;21.27;;;11.20;;
20557;SDS011;10437;48.156;11.530;2023-04-08T07:32:40;16.83;;;10.50;;
20557;SDS011;10437;48.156;11.530;2023-04-08T07:35:07;27.20;;;10.97;;
20557;SDS011;10437;48.156;11.530;2023-04-08T07:37:35;22.37;;;11.57;;
20557;SDS011;10437;48.156;11.530;2023-04-08T07:40:02;20.17;;;11.67;;
20557;SDS011;10437;48.156;11.530;2023-04-08T07:42:29;18.23;;;10.60;;
20557;SDS011;10437;48.156;11.530;2023-04-08T07:44:57;18.00;;;10.57;;
20557;SDS011;10437;48.156;11.530;2023-04-08T07:47:24;18.50;;;10.27;;
20557;SDS011;10437;48.156;11.530;2023-04-08T07:49:52;17.80;;;10.20;;
20557;SDS011;10437;48.156;11.530;2023-04-08T07:52:19;17.83;;;10.20;;
20557;SDS011;10437;48.156;11.530;2023-04-08T07:54:46;19.80;;;10.47;;
20557;SDS011;10437;48.156;11.530;2023-04-08T07:57:13;18.00;;;9.70;;
20557;SDS011;10437;48.156;11.530;2023-04-08T07:59:41;19.23;;;9.47;;
20557;SDS011;10437;48.156;11.530;2023-04-08T08:02:09;19.73;;;10.87;;
20557;SDS011;10437;48.156;11.530;2023-04-08T08:04:36;16.03;;;9.30;;
20557;SDS011;10437;48.156;11.530;2023-04-08T08:07:03;17.87;;;9.53;;
20557;SDS011;10437;48.156;11.530;2023-04-08T08:09:30;15.33;;;8.53;;
20557;SDS011;10437;48.156;11.530;2023-04-08T08:11:57;16.80;;;9.10;;
20557;SDS011;10437;48.156;11.530;2023-04-08T08:14:25;16.70;;;8.90;;
20557;SDS011;10437;48.156;11.530;2023-04-08T08:16:52;15.00;;;9.03;;
20557;SDS011;10437;48.156;11.530;2023-04-08T08:19:22;14.47;;;8.90;;
20557;SDS011;10437;48.156;11.530;2023-04-08T08:21:48;17.50;;;8.53;;
20557;SDS011;10437;48.156;11.530;2023-04-08T08:24:16;14.60;;;8.47;;
20557;SDS011;10437;48.156;11.530;2023-04-08T08:26:43;15.07;;;9.17;;
20557;SDS011;10437;48.156;11.530;2023-04-08T08:29:13;17.23;;;9.33;;
20557;SDS011;10437;48.156;11.530;2023-04-08T08:31:40;16.77;;;8.80;;
20557;SDS011;10437;48.156;11.530;2023-04-08T08:34:07;17.30;;;9.53;;
20557;SDS011;10437;48.156;11.530;2023-04-08T08:36:36;15.90;;;9.53;;
20557;SDS011;10437;48.156;11.530;2023-04-08T08:39:03;16.30;;;9.27;;
20557;SDS011;10437;48.156;11.530;2023-04-08T08:41:32;18.03;;;8.20;;
20557;SDS011;10437;48.156;11.530;2023-04-08T08:44:01;15.77;;;8.77;;
20557;SDS011;10437;48.156;11.530;2023-04-08T08:46:30;15.67;;;8.73;;
20557;SDS011;10437;48.156;11.530;2023-04-08T08:48:57;17.30;;;9.57;;
20557;SDS011;10437;48.156;11.530;2023-04-08T08:51:24;13.53;;;8.57;;
20557;SDS011;10437;48.156;11.530;2023-04-08T08:53:54;17.73;;;9.40;;
20557;SDS011;10437;48.156;11.530;2023-04-08T08:56:21;18.37;;;10.20;;
20557;SDS011;10437;48.156;11.530;2023-04-08T08:58:48;17.47;;;10.17;;
20557;SDS011;10437;48.156;11.530;2023-04-08T09:01:31;17.33;;;9.90;;
20557;SDS011;10437;48.156;11.530;2023-04-08T09:04:05;18.67;;;9.83;;
20557;SDS011;10437;48.156;11.530;2023-04-08T09:06:33;17.77;;;9.47;;
20557;SDS011;10437;48.156;11.530;2023-04-08T09:09:02;15.80;;;9.50;;
20557;SDS011;10437;48.156;11.530;2023-04-08T09:11:30;15.03;;;9.17;;
20557;SDS011;10437;48.156;11.530;2023-04-08T09:13:57;16.57;;;8.90;;
20557;SDS011;10437;48.156;11.530;2023-04-08T09:16:25;16.33;;;8.40;;
20557;SDS011;10437;48.156;11.530;2023-04-08T09:18:53;16.77;;;8.33;;
20557;SDS011;10437;48.156;11.530;2023-04-08T09:21:21;15.47;;;7.90;;
20557;SDS011;10437;48.156;11.530;2023-04-08T09:23:49;13.90;;;8.53;;
20557;SDS011;10437;48.156;11.530;2023-04-08T09:26:18;15.53;;;8.47;;
20557;SDS011;10437;48.156;11.530;2023-04-08T09:28:58;19.03;;;8.97;;
20557;SDS011;10437;48.156;11.530;2023-04-08T09:31:26;14.17;;;8.17;;
20557;SDS011;10437;48.156;11.530;2023-04-08T09:33:54;13.57;;;8.13;;
20557;SDS011;10437;48.156;11.530;2023-04-08T09:36:22;13.90;;;8.13;;
20557;SDS011;10437;48.156;11.530;2023-04-08T09:38:50;13.03;;;7.77;;
20557;SDS011;10437;48.156;11.530;2023-04-08T09:41:20;15.50;;;8.23;;
20557;SDS011;10437;48.156;11.530;2023-04-08T09:43:49;15.53;;;9.07;;
20557;SDS011;10437;48.156;11.530;2023-04-08T09:46:21;17.00;;;9.07;;
20557;SDS011;10437;48.156;11.530;2023-04-08T09:48:54;15.90;;;8.97;;
20557;SDS011;10437;48.156;11.530;2023-04-08T09:51:31;19.97;;;9.53;;
20557;SDS011;10437;48.156;11.530;2023-04-08T09:54:02;16.50;;;8.03;;
20557;SDS011;10437;48.156;11.530;2023-04-08T09:56:34;16.10;;;9.07;;
20557;SDS011;10437;48.156;11.530;2023-04-08T09:59:10;15.37;;;8.73;;
20557;SDS011;10437;48.156;11.530;2023-04-08T10:01:42;17.77;;;9.03;;
20557;SDS011;10437;48.156;11.530;2023-04-08T10:04:13;14.33;;;8.77;;
20557;SDS011;10437;48.156;11.530;2023-04-08T10:06:42;14.50;;;8.40;;
20557;SDS011;10437;48.156;11.530;2023-04-08T10:09:09;15.57;;;9.67;;
20557;SDS011;10437;48.156;11.530;2023-04-08T10:11:38;16.30;;;9.60;;
20557;SDS011;10437;48.156;11.530;2023-04-08T10:14:05;19.57;;;10.13;;
20557;SDS011;10437;48.156;11.530;2023-04-08T10:16:32;16.67;;;9.80;;
20557;SDS011;10437;48.156;11.530;2023-04-08T10:18:59;18.17;;;10.43;;
20557;SDS011;10437;48.156;11.530;2023-04-08T10:21:30;21.10;;;10.70;;
20557;SDS011;10437;48.156;11.530;2023-04-08T10:23:58;20.20;;;9.53;;
20557;SDS011;10437;48.156;11.530;2023-04-08T10:26:30;18.40;;;9.83;;
20557;SDS011;10437;48.156;11.530;2023-04-08T10:32:11;20.03;;;11.03;;
20557;SDS011;10437;48.156;11.530;2023-04-08T10:34:53;18.47;;;10.97;;
20557;SDS011;10437;48.156;11.530;2023-04-08T10:37:21;20.17;;;11.57;;
20557;SDS011;10437;48.156;11.530;2023-04-08T10:39:48;18.40;;;10.10;;
20557;SDS011;10437;48.156;11.530;2023-04-08T10:42:17;20.67;;;11.67;;
20557;SDS011;10437;48.156;11.530;2023-04-08T10:44:44;20.03;;;11.50;;
20557;SDS011;10437;48.156;11.530;2023-04-08T10:47:13;19.10;;;10.40;;
20557;SDS011;10437;48.156;11.530;2023-04-08T10:49:40;19.37;;;11.53;;
20557;SDS011;10437;48.156;11.530;2023-04-08T10:52:07;18.83;;;11.23;;
20557;SDS011;10437;48.156;11.530;2023-04-08T10:54:35;18.70;;;11.13;;
20557;SDS011;10437;48.156;11.530;2023-04-08T10:57:03;19.67;;;11.37;;
20557;SDS011;10437;48.156;11.530;2023-04-08T10:59:31;18.67;;;11.57;;
20557;SDS011;10437;48.156;11.530;2023-04-08T11:01:58;18.00;;;11.20;;
20557;SDS011;10437;48.156;11.530;2023-04-08T11:04:27;20.00;;;11.57;;
20557;SDS011;10437;48.156;11.530;2023-04-08T11:06:54;18.97;;;11.87;;
20557;SDS011;10437;48.156;11.530;2023-04-08T11:09:22;19.20;;;11.70;;
20557;SDS011;10437;48.156;11.530;2023-04-08T11:11:49;20.30;;;11.10;;
20557;SDS011;10437;48.156;11.530;2023-04-08T11:14:18;20.43;;;11.37;;
20557;SDS011;10437;48.156;11.530;2023-04-08T11:16:46;20.13;;;11.37;;
20557;SDS011;10437;48.156;11.530;2023-04-08T11:19:13;22.33;;;11.67;;
20557;SDS011;10437;48.156;11.530;2023-04-08T11:21:42;19.20;;;10.77;;
20557;SDS011;10437;48.156;11.530;2023-04-08T11:24:09;21.87;;;11.93;;
20557;SDS011;10437;48.156;11.530;2023-04-08T11:26:37;19.73;;;11.77;;
20557;SDS011;10437;48.156;11.530;2023-04-08T11:29:04;17.87;;;11.37;;
20557;SDS011;10437;48.156;11.530;2023-04-08T11:31:34;19.93;;;11.30;;
20557;SDS011;10437;48.156;11.530;2023-04-08T11:34:01;20.57;;;11.30;;
20557;SDS011;10437;48.156;11.530;2023-04-08T11:36:28;17.70;;;11.17;;
20557;SDS011;10437;48.156;11.530;2023-04-08T11:38:57;17.00;;;10.47;;
20557;SDS011;10437;48.156;11.530;2023-04-08T11:41:24;17.93;;;10.67;;
20557;SDS011;10437;48.156;11.530;2023-04-08T11:43:52;18.70;;;10.90;;
20557;SDS011;10437;48.156;11.530;2023-04-08T11:46:20;19.07;;;10.60;;
20557;SDS011;10437;48.156;11.530;2023-04-08T11:48:56;20.13;;;10.93;;
20557;SDS011;10437;48.156;11.530;2023-04-08T11:51:24;18.03;;;11.10;;
20557;SDS011;10437;48.156;11.530;2023-04-08T11:53:51;21.97;;;11.77;;
20557;SDS011;10437;48.156;11.530;2023-04-08T11:56:20;15.50;;;10.20;;
20557;SDS011;10437;48.156;11.530;2023-04-08T11:58:48;17.10;;;10.50;;
20557;SDS011;10437;48.156;11.530;2023-04-08T12:01:15;18.97;;;11.10;;
20557;SDS011;10437;48.156;11.530;2023-04-08T12:03:56;20.13;;;11.70;;
20557;SDS011;10437;48.156;11.530;2023-04-08T12:06:24;18.57;;;10.50;;
20557;SDS011;10437;48.156;11.530;2023-04-08T12:08:52;19.73;;;10.87;;
20557;SDS011;10437;48.156;11.530;2023-04-08T12:11:20;16.63;;;10.50;;
20557;SDS011;10437;48.156;11.530;2023-04-08T12:13:48;19.20;;;10.47;;
20557;SDS011;10437;48.156;11.530;2023-04-08T12:16:16;17.30;;;10.43;;
20557;SDS011;10437;48.156;11.530;2023-04-08T12:18:43;18.10;;;10.43;;
20557;SDS011;10437;48.156;11.530;2023-04-08T12:21:11;16.57;;;10.17;;
20557;SDS011;10437;48.156;11.530;2023-04-08T12:23:38;15.63;;;10.00;;
20557;SDS011;10437;48.156;11.530;2023-04-08T12:26:05;17.43;;;9.17;;
20557;SDS011;10437;48.156;11.530;2023-04-08T12:28:34;16.60;;;10.57;;
20557;SDS011;10437;48.156;11.530;2023-04-08T12:31:01;15.93;;;9.77;;
20557;SDS011;10437;48.156;11.530;2023-04-08T12:33:28;17.53;;;9.27;;
20557;SDS011;10437;48.156;11.530;2023-04-08T12:35:55;16.57;;;9.70;;
20557;SDS011;10437;48.156;11.530;2023-04-08T12:38:23;15.23;;;9.63;;
20557;SDS011;10437;48.156;11.530;2023-04-08T12:40:50;17.13;;;8.83;;
20557;SDS011;10437;48.156;11.530;2023-04-08T12:43:17;15.07;;;8.93;;
20557;SDS011;10437;48.156;11.530;2023-04-08T12:45:46;14.23;;;8.67;;
20557;SDS011;10437;48.156;11.530;2023-04-08T12:48:13;15.73;;;8.97;;
20557;SDS011;10437;48.156;11.530;2023-04-08T12:50:40;12.97;;;8.70;;
20557;SDS011;10437;48.156;11.530;2023-04-08T12:53:08;14.47;;;8.23;;
20557;SDS011;10437;48.156;11.530;2023-04-08T12:55:35;13.50;;;7.77;;
20557;SDS011;10437;48.156;11.530;2023-04-08T12:58:02;16.23;;;8.20;;
20557;SDS011;10437;48.156;11.530;2023-04-08T13:00:29;13.67;;;7.80;;
20557;SDS011;10437;48.156;11.530;2023-04-08T13:02:58;16.37;;;8.57;;
20557;SDS011;10437;48.156;11.530;2023-04-08T13:05:25;13.70;;;8.10;;
20557;SDS011;10437;48.156;11.530;2023-04-08T13:07:52;13.63;;;7.33;;
20557;SDS011;10437;48.156;11.530;2023-04-08T13:10:19;15.13;;;8.50;;
20557;SDS011;10437;48.156;11.530;2023-04-08T13:12:46;13.60;;;8.27;;
20557;SDS011;10437;48.156;11.530;2023-04-08T13:15:14;14.37;;;8.53;;
20557;SDS011;10437;48.156;11.530;2023-04-08T13:17:41;11.87;;;6.97;;
20557;SDS011;10437;48.156;11.530;2023-04-08T13:20:10;15.33;;;8.23;;
20557;SDS011;10437;48.156;11.530;2023-04-08T13:22:37;11.70;;;7.20;;
20557;SDS011;10437;48.156;11.530;2023-04-08T13:25:05;12.33;;;7.20;;
20557;SDS011;10437;48.156;11.530;2023-04-08T13:27:32;13.93;;;7.73;;
20557;SDS011;10437;48.156;11.530;2023-04-08T13:29:59;11.30;;;7.07;;
20557;SDS011;10437;48.156;11.530;2023-04-08T13:32:27;11.70;;;6.80;;
20557;SDS011;10437;48.156;11.530;2023-04-08T13:34:54;12.87;;;6.90;;
20557;SDS011;10437;48.156;11.530;2023-04-08T13:37:25;12.30;;;7.07;;
20557;SDS011;10437;48.156;11.530;2023-04-08T13:39:52;11.13;;;6.83;;
20557;SDS011;10437;48.156;11.530;2023-04-08T13:42:19;12.50;;;6.87;;
20557;SDS011;10437;48.156;11.530;2023-04-08T13:44:46;12.23;;;8.07;;
20557;SDS011;10437;48.156;11.530;2023-04-08T13:47:13;12.93;;;7.53;;
20557;SDS011;10437;48.156;11.530;2023-04-08T13:49:41;12.70;;;7.47;;
20557;SDS011;10437;48.156;11.530;2023-04-08T13:52:08;12.10;;;7.20;;
20557;SDS011;10437;48.156;11.530;2023-04-08T13:54:37;10.50;;;7.07;;
20557;SDS011;10437;48.156;11.530;2023-04-08T13:57:04;12.67;;;7.60;;
20557;SDS011;10437;48.156;11.530;2023-04-08T13:59:31;10.90;;;6.47;;
20557;SDS011;10437;48.156;11.530;2023-04-08T14:01:58;12.13;;;7.17;;
20557;SDS011;10437;48.156;11.530;2023-04-08T14:04:26;12.73;;;7.57;;
20557;SDS011;10437;48.156;11.530;2023-04-08T14:06:53;9.97;;;7.27;;
20557;SDS011;10437;48.156;11.530;2023-04-08T14:09:22;11.60;;;7.27;;
20557;SDS011;10437;48.156;11.530;2023-04-08T14:11:50;11.23;;;6.63;;
20557;SDS011;10437;48.156;11.530;2023-04-08T14:14:17;11.40;;;6.83;;
20557;SDS011;10437;48.156;11.530;2023-04-08T14:16:44;13.03;;;7.50;;
20557;SDS011;10437;48.156;11.530;2023-04-08T14:19:12;12.87;;;6.57;;
20557;SDS011;10437;48.156;11.530;2023-04-08T14:21:40;11.00;;;6.97;;
20557;SDS011;10437;48.156;11.530;2023-04-08T14:24:07;12.17;;;7.23;;
20557;SDS011;10437;48.156;11.530;2023-04-08T14:26:34;12.97;;;8.00;;
20557;SDS011;10437;48.156;11.530;2023-04-08T14:29:04;11.23;;;6.43;;